createdAt,value
2018-06-19T00:01:32.267Z,99.90
2018-06-19T00:04:01.319Z,99.90
2018-06-19T00:06:30.412Z,99.90
2018-06-19T00:08:59.467Z,99.90
2018-06-19T00:11:28.580Z,99.90
2018-06-19T00:16:26.249Z,99.90
2018-06-19T00:21:29.388Z,99.90
2018-06-19T00:23:58.452Z,99.90
2018-06-19T00:28:56.252Z,99.90
2018-06-19T00:31:25.348Z,99.90
2018-06-19T00:33:54.359Z,99.90
2018-06-19T00:36:23.404Z,99.90
2018-06-19T00:38:52.442Z,99.90
2018-06-19T00:41:21.484Z,99.90
2018-06-19T00:43:50.492Z,99.90
2018-06-19T00:46:21.411Z,99.90
2018-06-19T00:48:50.456Z,99.90
2018-06-19T00:51:19.525Z,99.90
2018-06-19T00:56:28.408Z,99.90
2018-06-19T00:58:57.400Z,99.90
2018-06-19T01:01:26.418Z,99.90
2018-06-19T01:03:55.515Z,99.90
2018-06-19T01:06:24.556Z,99.90
2018-06-19T01:08:53.571Z,99.90
2018-06-19T01:11:22.599Z,99.90
2018-06-19T01:13:51.636Z,99.90
2018-06-19T01:16:20.675Z,99.90
2018-06-19T01:18:49.741Z,99.90
2018-06-19T01:21:18.759Z,99.90
2018-06-19T01:23:47.803Z,99.90
2018-06-19T01:28:45.616Z,99.90
2018-06-19T01:31:14.666Z,99.90
2018-06-19T01:33:43.683Z,99.90
2018-06-19T01:36:12.728Z,99.90
2018-06-19T01:38:41.729Z,99.90
2018-06-19T01:41:10.799Z,99.90
2018-06-19T01:43:39.811Z,99.90
2018-06-19T01:46:08.829Z,99.90
2018-06-19T01:48:37.880Z,99.90
2018-06-19T01:51:06.927Z,99.90
2018-06-19T01:53:35.960Z,99.90
2018-06-19T01:56:05.039Z,99.90
2018-06-19T01:58:34.051Z,99.90
2018-06-19T02:01:03.219Z,99.90
2018-06-19T02:03:32.244Z,99.90
2018-06-19T02:06:01.251Z,99.90
2018-06-19T02:08:30.287Z,99.90
2018-06-19T02:10:59.315Z,99.90
2018-06-19T02:13:28.361Z,99.90
2018-06-19T02:15:57.380Z,99.90
2018-06-19T02:18:26.431Z,99.90
2018-06-19T02:20:55.491Z,99.90
2018-06-19T02:23:24.504Z,99.90
2018-06-19T02:25:53.580Z,99.90
2018-06-19T02:28:22.595Z,99.90
2018-06-19T02:30:51.708Z,99.90
2018-06-19T02:33:20.748Z,99.90
2018-06-19T02:35:49.815Z,99.90
2018-06-19T02:38:19.374Z,99.90
2018-06-19T02:40:48.449Z,99.90
2018-06-19T02:43:17.456Z,99.90
2018-06-19T02:45:46.507Z,99.90
2018-06-19T02:48:15.522Z,99.90
2018-06-19T02:50:44.568Z,99.90
2018-06-19T02:53:13.624Z,99.90
2018-06-19T02:55:43.014Z,99.90
2018-06-19T02:58:12.031Z,99.90
2018-06-19T03:00:41.045Z,99.90
2018-06-19T03:03:10.093Z,99.90
2018-06-19T03:05:39.107Z,99.90
2018-06-19T03:08:08.146Z,99.90
2018-06-19T03:10:37.231Z,99.90
2018-06-19T03:13:06.272Z,99.90
2018-06-19T03:15:35.295Z,99.90
2018-06-19T03:18:04.369Z,99.90
2018-06-19T03:20:33.390Z,99.90
2018-06-19T03:23:02.437Z,99.90
2018-06-19T03:25:31.531Z,99.90
2018-06-19T03:30:29.361Z,99.90
2018-06-19T03:32:58.357Z,99.90
2018-06-19T03:35:27.380Z,99.90
2018-06-19T03:37:56.419Z,99.90
2018-06-19T03:40:25.435Z,99.90
2018-06-19T03:42:54.523Z,99.90
2018-06-19T03:45:23.534Z,99.90
2018-06-19T03:47:52.585Z,99.90
2018-06-19T03:50:21.629Z,99.90
2018-06-19T03:52:50.679Z,99.90
2018-06-19T03:55:19.700Z,99.90
2018-06-19T03:57:48.771Z,99.90
2018-06-19T04:00:17.891Z,99.90
2018-06-19T04:02:46.928Z,99.90
2018-06-19T04:05:15.946Z,99.90
2018-06-19T04:07:45.009Z,99.90
2018-06-19T04:10:14.088Z,99.90
2018-06-19T04:12:43.220Z,99.90
2018-06-19T04:15:12.266Z,99.90
2018-06-19T04:17:41.311Z,99.90
2018-06-19T04:22:39.008Z,99.90
2018-06-19T04:25:08.031Z,99.90
2018-06-19T04:27:37.078Z,99.90
2018-06-19T04:30:06.144Z,99.90
2018-06-19T04:32:35.206Z,99.90
2018-06-19T04:35:04.284Z,99.90
2018-06-19T04:37:33.327Z,99.90
2018-06-19T04:40:02.364Z,99.90
2018-06-19T04:42:31.404Z,99.90
2018-06-19T04:45:00.416Z,99.90
2018-06-19T04:47:29.465Z,99.90
2018-06-19T04:49:58.520Z,99.90
2018-06-19T04:52:27.564Z,99.90
2018-06-19T04:54:56.595Z,99.90
2018-06-19T04:57:25.635Z,99.90
2018-06-19T04:59:54.649Z,99.90
2018-06-19T05:02:23.728Z,99.90
2018-06-19T05:04:52.759Z,99.90
2018-06-19T05:07:21.809Z,99.90
2018-06-19T05:09:50.824Z,99.90
2018-06-19T05:12:19.875Z,99.90
2018-06-19T05:14:48.896Z,99.90
2018-06-19T05:17:17.977Z,99.90
2018-06-19T05:19:47.093Z,99.90
2018-06-19T05:22:16.132Z,99.90
2018-06-19T05:24:45.176Z,99.90
2018-06-19T05:27:14.231Z,99.90
2018-06-19T05:29:43.249Z,99.90
2018-06-19T05:32:12.296Z,99.90
2018-06-19T05:34:41.344Z,99.90
2018-06-19T05:37:10.400Z,99.90
2018-06-19T05:39:39.415Z,99.90
2018-06-19T05:42:08.478Z,99.90
2018-06-19T05:44:37.484Z,99.90
2018-06-19T05:47:06.623Z,99.90
2018-06-19T05:49:35.644Z,99.90
2018-06-19T05:52:04.713Z,99.90
2018-06-19T05:54:34.241Z,99.90
2018-06-19T05:57:03.319Z,99.90
2018-06-19T05:59:32.407Z,99.90
2018-06-19T06:02:01.440Z,99.90
2018-06-19T06:04:30.528Z,99.90
2018-06-19T06:06:59.540Z,99.90
2018-06-19T06:09:28.594Z,99.90
2018-06-19T06:11:57.601Z,99.90
2018-06-19T06:14:26.649Z,99.90
2018-06-19T06:16:55.676Z,99.90
2018-06-19T06:19:24.886Z,99.90
2018-06-19T06:21:54.252Z,99.90
2018-06-19T06:24:23.352Z,99.90
2018-06-19T06:29:21.105Z,99.90
2018-06-19T06:31:50.225Z,99.90
2018-06-19T06:34:19.279Z,99.90
2018-06-19T06:36:48.301Z,99.90
2018-06-19T06:39:17.512Z,99.90
2018-06-19T06:41:46.579Z,99.90
2018-06-19T06:44:15.647Z,99.90
2018-06-19T06:46:44.747Z,99.90
2018-06-19T06:49:13.825Z,99.90
2018-06-19T06:51:42.860Z,99.90
2018-06-19T06:54:11.937Z,99.90
2018-06-19T06:56:41.012Z,99.90
2018-06-19T06:59:10.271Z,99.90
2018-06-19T07:01:39.414Z,99.90
2018-06-19T07:04:08.813Z,99.90
2018-06-19T07:06:37.965Z,99.90
2018-06-19T07:09:09.096Z,99.90
2018-06-19T07:11:38.244Z,99.90
2018-06-19T07:14:07.788Z,99.90
2018-06-19T07:16:37.245Z,99.90
2018-06-19T07:19:06.611Z,99.90
2018-06-19T07:21:35.718Z,99.90
2018-06-19T07:26:33.857Z,99.90
2018-06-19T07:29:03.493Z,99.90
2018-06-19T07:31:32.559Z,99.90
2018-06-19T07:34:01.691Z,99.90
2018-06-19T07:36:30.758Z,99.90
2018-06-19T07:38:59.882Z,99.90
2018-06-19T07:41:29.081Z,99.90
2018-06-19T07:43:58.389Z,99.90
2018-06-19T07:46:27.519Z,99.90
2018-06-19T07:48:56.580Z,99.90
2018-06-19T07:51:25.650Z,99.90
2018-06-19T07:53:55.862Z,99.90
2018-06-19T07:56:25.054Z,99.90
2018-06-19T07:58:54.370Z,99.90
2018-06-19T08:01:23.629Z,99.90
2018-06-19T08:03:52.993Z,99.90
2018-06-19T08:06:22.448Z,99.90
2018-06-19T08:08:51.581Z,99.90
2018-06-19T08:11:20.912Z,99.90
2018-06-19T08:13:50.035Z,99.90
2018-06-19T08:16:19.423Z,99.90
2018-06-19T08:18:48.681Z,99.90
2018-06-19T08:21:18.078Z,99.90
2018-06-19T08:23:47.335Z,99.90
2018-06-19T08:26:16.486Z,99.80
2018-06-19T08:28:45.996Z,99.70
2018-06-19T08:31:15.360Z,99.80
2018-06-19T08:33:44.652Z,99.60
2018-06-19T08:36:14.343Z,99.70
2018-06-19T08:38:43.907Z,99.50
2018-06-19T08:41:13.400Z,99.00
2018-06-19T08:43:43.825Z,99.00
2018-06-19T08:46:13.261Z,98.10
2018-06-19T08:48:42.363Z,97.70
2018-06-19T08:51:11.620Z,98.00
2018-06-19T08:53:40.744Z,99.20
2018-06-19T09:01:07.537Z,98.10
2018-06-19T09:03:36.673Z,97.80
2018-06-19T09:06:05.801Z,97.60
2018-06-19T09:08:35.414Z,98.00
2018-06-19T09:11:04.603Z,97.90
2018-06-19T09:13:33.708Z,97.80
2018-06-19T09:16:02.862Z,97.10
2018-06-19T09:18:32.087Z,97.90
2018-06-19T09:21:01.352Z,97.40
2018-06-19T09:23:30.534Z,97.40
2018-06-19T09:25:59.656Z,97.60
2018-06-19T09:28:29.017Z,97.50
2018-06-19T09:30:58.154Z,97.70
2018-06-19T09:33:29.317Z,97.40
2018-06-19T09:35:58.371Z,97.20
2018-06-19T09:38:27.459Z,97.80
2018-06-19T09:40:56.650Z,98.10
2018-06-19T09:43:25.755Z,97.70
2018-06-19T09:45:55.079Z,96.50
2018-06-19T09:48:24.653Z,96.60
2018-06-19T09:50:54.890Z,96.20
2018-06-19T09:53:24.575Z,96.20
2018-06-19T09:55:54.247Z,96.10
2018-06-19T09:58:24.564Z,96.00
2018-06-19T10:00:56.360Z,96.20
2018-06-19T10:03:28.804Z,96.90
2018-06-19T10:05:59.297Z,96.50
2018-06-19T10:08:30.231Z,96.00
2018-06-19T10:11:00.283Z,96.30
2018-06-19T10:13:32.559Z,95.90
2018-06-19T10:16:01.685Z,95.40
2018-06-19T10:18:30.877Z,95.20
2018-06-19T10:20:59.931Z,95.20
2018-06-19T10:23:29.191Z,95.10
2018-06-19T10:25:59.787Z,94.80
2018-06-19T10:28:29.251Z,94.80
2018-06-19T10:30:58.968Z,94.20
2018-06-19T10:33:28.040Z,94.40
2018-06-19T10:35:57.122Z,93.90
2018-06-19T10:40:54.977Z,93.30
2018-06-19T10:43:24.001Z,93.50
2018-06-19T10:45:53.190Z,93.90
2018-06-19T10:48:22.500Z,93.70
2018-06-19T10:50:51.562Z,93.80
2018-06-19T10:53:20.588Z,94.20
2018-06-19T10:55:49.923Z,94.00
2018-06-19T10:58:19.299Z,94.20
2018-06-19T11:00:48.319Z,94.40
2018-06-19T11:03:17.403Z,94.60
2018-06-19T11:05:46.464Z,94.40
2018-06-19T11:08:15.548Z,94.80
2018-06-19T11:10:44.631Z,94.90
2018-06-19T11:13:13.699Z,95.00
2018-06-19T11:15:42.727Z,95.30
2018-06-19T11:18:11.756Z,95.40
2018-06-19T11:20:40.829Z,95.20
2018-06-19T11:23:09.888Z,95.40
2018-06-19T11:25:38.960Z,95.50
2018-06-19T11:28:08.012Z,95.90
2018-06-19T11:30:37.068Z,97.00
2018-06-19T11:33:06.169Z,97.20
2018-06-19T11:35:35.293Z,97.40
2018-06-19T11:38:04.356Z,97.40
2018-06-19T11:40:33.383Z,97.40
2018-06-19T11:43:02.468Z,97.30
2018-06-19T11:45:31.505Z,97.30
2018-06-19T11:48:00.559Z,96.80
2018-06-19T11:50:29.568Z,96.60
2018-06-19T11:52:59.232Z,96.40
2018-06-19T11:55:28.252Z,96.10
2018-06-19T11:57:57.262Z,96.00
2018-06-19T12:00:26.362Z,96.50
2018-06-19T12:02:55.492Z,96.30
2018-06-19T12:05:24.500Z,96.10
2018-06-19T12:07:53.591Z,96.00
2018-06-19T12:10:22.713Z,95.80
2018-06-19T12:12:51.724Z,95.90
2018-06-19T12:15:21.088Z,96.10
2018-06-19T12:17:50.111Z,96.20
2018-06-19T12:20:19.128Z,96.30
2018-06-19T12:22:48.180Z,96.20
2018-06-19T12:25:17.264Z,95.70
2018-06-19T12:27:46.359Z,95.50
2018-06-19T12:30:15.378Z,95.30
2018-06-19T12:32:44.433Z,95.20
2018-06-19T12:35:14.389Z,95.20
2018-06-19T12:37:43.434Z,95.10
2018-06-19T12:40:12.462Z,95.30
2018-06-19T12:42:41.560Z,95.30
2018-06-19T12:45:10.651Z,95.50
2018-06-19T12:47:39.724Z,95.50
2018-06-19T12:52:21.511Z,95.00
2018-06-19T12:55:14.063Z,94.70
2018-06-19T12:57:43.175Z,94.60
2018-06-19T13:00:12.759Z,95.10
2018-06-19T13:02:51.780Z,94.80
2018-06-19T13:05:32.102Z,94.30
2018-06-19T13:08:01.147Z,94.50
2018-06-19T13:10:30.213Z,94.60
2018-06-19T13:13:35.150Z,95.10
2018-06-19T13:16:04.212Z,95.10
2018-06-19T13:18:44.928Z,95.40
2018-06-19T13:23:42.731Z,95.60
2018-06-19T13:26:11.720Z,95.50
2018-06-19T13:29:53.300Z,94.90
2018-06-19T13:32:22.838Z,95.10
2018-06-19T13:34:51.999Z,95.30
2018-06-19T13:37:21.118Z,95.60
2018-06-19T13:42:02.855Z,95.60
2018-06-19T13:44:43.119Z,94.90
2018-06-19T13:47:12.196Z,93.90
2018-06-19T13:49:41.273Z,93.80
2018-06-19T13:52:10.301Z,94.20
2018-06-19T13:54:39.371Z,93.20
2018-06-19T13:57:50.139Z,93.20
2018-06-19T14:00:20.576Z,93.60
2018-06-19T14:02:49.893Z,92.90
2018-06-19T14:05:19.749Z,93.20
2018-06-19T14:08:03.613Z,93.00
2018-06-19T14:13:03.121Z,93.40
2018-06-19T14:18:05.287Z,92.60
2018-06-19T14:20:34.411Z,92.80
2018-06-19T14:23:03.503Z,92.70
2018-06-19T14:25:32.523Z,92.70
2018-06-19T14:28:01.601Z,92.20
2018-06-19T14:30:30.660Z,92.30
2018-06-19T14:32:59.688Z,92.60
2018-06-19T14:35:28.765Z,93.10
2018-06-19T14:37:57.797Z,92.60
2018-06-19T14:40:26.908Z,93.00
2018-06-19T14:42:55.976Z,93.40
2018-06-19T14:45:25.293Z,93.10
2018-06-19T14:47:54.327Z,93.10
2018-06-19T14:50:23.472Z,93.10
2018-06-19T14:52:52.502Z,93.00
2018-06-19T14:55:21.563Z,92.60
2018-06-19T14:57:50.690Z,92.30
2018-06-19T15:00:19.988Z,92.20
2018-06-19T15:02:49.038Z,91.30
2018-06-19T15:05:18.658Z,91.00
2018-06-19T15:07:51.626Z,91.00
2018-06-19T15:10:20.944Z,91.00
2018-06-19T15:12:50.051Z,91.50
2018-06-19T15:15:19.099Z,91.80
2018-06-19T15:17:48.108Z,92.50
2018-06-19T15:20:17.459Z,92.80
2018-06-19T15:22:46.536Z,93.00
2018-06-19T15:25:15.633Z,93.30
2018-06-19T15:27:44.679Z,93.10
2018-06-19T15:30:13.733Z,92.90
2018-06-19T15:32:42.928Z,93.10
2018-06-19T15:35:12.212Z,93.30
2018-06-19T15:37:41.334Z,93.30
2018-06-19T15:40:10.465Z,93.50
2018-06-19T15:45:08.273Z,94.00
2018-06-19T15:47:37.306Z,93.10
2018-06-19T15:50:06.647Z,93.00
2018-06-19T15:52:35.781Z,92.80
2018-06-19T15:55:04.896Z,93.10
2018-06-19T15:57:33.976Z,93.00
2018-06-19T16:00:03.135Z,93.30
2018-06-19T16:02:32.190Z,92.80
2018-06-19T16:05:01.248Z,92.90
2018-06-19T16:07:30.515Z,93.30
2018-06-19T16:09:59.589Z,93.60
2018-06-19T16:12:28.656Z,93.80
2018-06-19T16:14:57.726Z,94.10
2018-06-19T16:17:26.886Z,94.10
2018-06-19T16:19:55.991Z,94.10
2018-06-19T16:22:25.056Z,94.20
2018-06-19T16:24:54.192Z,94.30
2018-06-19T16:27:23.339Z,94.40
2018-06-19T16:29:52.428Z,94.10
2018-06-19T16:32:21.514Z,93.60
2018-06-19T16:34:50.525Z,93.40
2018-06-19T16:37:19.628Z,93.40
2018-06-19T16:39:48.765Z,93.80
2018-06-19T16:44:46.698Z,94.00
2018-06-19T16:47:15.985Z,93.80
2018-06-19T16:49:44.995Z,93.40
2018-06-19T16:52:14.850Z,93.60
2018-06-19T16:54:44.011Z,93.80
2018-06-19T16:57:13.069Z,93.60
2018-06-19T16:59:42.171Z,93.40
2018-06-19T17:02:11.314Z,92.80
2018-06-19T17:04:40.385Z,92.50
2018-06-19T17:07:09.825Z,93.00
2018-06-19T17:12:07.667Z,93.40
2018-06-19T17:14:36.818Z,93.20
2018-06-19T17:19:34.686Z,93.50
2018-06-19T17:22:03.793Z,93.80
2018-06-19T17:27:01.873Z,93.40
2018-06-19T17:29:30.998Z,93.60
2018-06-19T17:32:00.093Z,93.50
2018-06-19T17:34:29.112Z,93.40
2018-06-19T17:36:58.168Z,93.60
2018-06-19T17:39:27.207Z,93.60
2018-06-19T17:41:56.270Z,93.80
2018-06-19T17:44:25.471Z,94.00
2018-06-19T17:46:54.653Z,93.80
2018-06-19T17:49:36.390Z,94.00
2018-06-19T17:52:05.471Z,94.00
2018-06-19T17:54:34.557Z,94.00
2018-06-19T17:57:03.701Z,94.10
2018-06-19T17:59:32.751Z,94.10
2018-06-19T18:02:01.957Z,94.10
2018-06-19T18:04:31.093Z,94.30
2018-06-19T18:07:00.327Z,94.20
2018-06-19T18:09:29.417Z,94.40
2018-06-19T18:11:58.609Z,93.90
2018-06-19T18:14:27.733Z,93.60
2018-06-19T18:16:57.052Z,93.70
2018-06-19T18:19:26.157Z,93.50
2018-06-19T18:21:55.324Z,93.50
2018-06-19T18:24:24.866Z,93.60
2018-06-19T18:26:53.919Z,93.20
2018-06-19T18:29:23.212Z,92.80
2018-06-19T18:32:05.744Z,92.90
2018-06-19T18:34:38.998Z,92.90
2018-06-19T18:37:11.064Z,92.80
2018-06-19T18:42:09.968Z,92.90
2018-06-19T18:47:07.962Z,93.20
2018-06-19T18:52:06.130Z,93.50
2018-06-19T18:54:35.194Z,93.70
2018-06-19T18:57:04.344Z,93.80
2018-06-19T18:59:33.443Z,94.00
2018-06-19T19:02:02.515Z,94.10
2018-06-19T19:04:31.548Z,94.40
2018-06-19T19:07:00.736Z,94.80
2018-06-19T19:09:29.953Z,94.60
2018-06-19T19:11:59.235Z,94.70
2018-06-19T19:14:32.713Z,94.90
2018-06-19T19:17:07.161Z,94.90
2018-06-19T19:19:36.380Z,94.80
2018-06-19T19:22:05.531Z,94.90
2018-06-19T19:24:34.639Z,94.90
2018-06-19T19:27:09.008Z,95.00
2018-06-19T19:29:43.670Z,95.20
2018-06-19T19:32:12.827Z,95.20
2018-06-19T19:34:42.060Z,95.30
2018-06-19T19:39:23.068Z,95.30
2018-06-19T19:41:52.501Z,95.20
2018-06-19T19:44:21.906Z,94.90
2018-06-19T19:46:56.509Z,94.40
2018-06-19T19:49:25.695Z,93.50
2018-06-19T19:51:54.919Z,93.40
2018-06-19T19:54:24.098Z,93.30
2018-06-19T19:56:58.465Z,92.60
2018-06-19T19:59:27.681Z,92.00
2018-06-19T20:01:56.894Z,91.70
2018-06-19T20:04:26.089Z,91.80
2018-06-19T20:09:23.899Z,91.70
2018-06-19T20:11:52.996Z,91.60
2018-06-19T20:14:22.226Z,91.60
2018-06-19T20:16:51.388Z,91.70
2018-06-19T20:19:20.665Z,91.90
2018-06-19T20:24:18.931Z,91.90
2018-06-19T20:26:48.147Z,92.10
2018-06-19T20:29:17.391Z,92.10
2018-06-19T20:31:46.629Z,92.20
2018-06-19T20:34:17.686Z,92.30
2018-06-19T20:36:47.269Z,92.30
2018-06-19T20:39:16.475Z,92.50
2018-06-19T20:41:45.886Z,92.60
2018-06-19T20:44:15.508Z,92.80
2018-06-19T20:46:44.677Z,92.90
2018-06-19T20:49:13.849Z,93.20
2018-06-19T20:51:43.418Z,93.30
2018-06-19T20:56:41.346Z,93.50
2018-06-19T20:59:10.590Z,93.80
2018-06-19T21:01:39.782Z,93.80
2018-06-19T21:04:08.971Z,94.10
2018-06-19T21:06:38.088Z,94.40
2018-06-19T21:09:08.227Z,94.40
2018-06-19T21:11:37.418Z,94.90
2018-06-19T21:14:06.548Z,95.30
2018-06-19T21:16:36.004Z,95.20
2018-06-19T21:19:05.089Z,95.30
2018-06-19T21:21:34.286Z,95.50
2018-06-19T21:24:03.389Z,95.60
2018-06-19T21:26:32.489Z,96.00
2018-06-19T21:29:01.551Z,96.70
2018-06-19T21:31:30.659Z,96.50
2018-06-19T21:33:59.741Z,96.40
2018-06-19T21:36:28.856Z,96.40
2018-06-19T21:38:57.859Z,96.50
2018-06-19T21:41:26.867Z,96.40
2018-06-19T21:43:56.314Z,96.50
2018-06-19T21:46:25.332Z,96.90
2018-06-19T21:48:54.414Z,96.90
2018-06-19T21:51:23.489Z,96.90
2018-06-19T21:53:52.659Z,97.10
2018-06-19T21:56:21.743Z,97.10
2018-06-19T21:58:50.776Z,97.50
2018-06-19T22:01:19.836Z,97.40
2018-06-19T22:06:18.135Z,97.70
2018-06-19T22:11:21.348Z,98.00
2018-06-19T22:16:19.035Z,98.10
2018-06-19T22:18:48.147Z,98.10
2018-06-19T22:21:17.191Z,98.30
2018-06-19T22:23:46.263Z,98.10
2018-06-19T22:26:15.274Z,98.00
2018-06-19T22:28:44.360Z,97.80
2018-06-19T22:31:13.438Z,97.60
2018-06-19T22:33:42.492Z,97.50
2018-06-19T22:36:11.517Z,97.40
2018-06-19T22:38:40.603Z,97.30
2018-06-19T22:41:09.647Z,97.30
2018-06-19T22:43:38.711Z,97.40
2018-06-19T22:46:07.743Z,97.60
2018-06-19T22:48:36.780Z,97.80
2018-06-19T22:51:05.900Z,97.60
2018-06-19T22:53:34.964Z,97.80
2018-06-19T22:56:04.025Z,97.70
2018-06-19T22:58:33.065Z,97.80
2018-06-19T23:01:02.104Z,98.20
2018-06-19T23:03:31.183Z,98.20
2018-06-19T23:06:00.256Z,98.10
2018-06-19T23:08:33.899Z,98.30
2018-06-19T23:11:03.067Z,98.30
2018-06-19T23:13:32.156Z,98.50
2018-06-19T23:16:01.246Z,98.50
2018-06-19T23:18:30.303Z,98.70
2018-06-19T23:20:59.344Z,98.60
2018-06-19T23:23:28.390Z,98.90
2018-06-19T23:25:57.428Z,98.90
2018-06-19T23:28:26.468Z,99.00
2018-06-19T23:30:55.476Z,99.20
2018-06-19T23:33:24.530Z,99.30
2018-06-19T23:35:53.571Z,99.20
2018-06-19T23:38:22.608Z,99.10
2018-06-19T23:40:51.712Z,99.20
2018-06-19T23:43:20.715Z,99.20
2018-06-19T23:45:49.747Z,99.20
2018-06-19T23:48:18.798Z,99.70
2018-06-19T23:50:47.844Z,99.80
2018-06-19T23:53:16.852Z,99.70
2018-06-19T23:55:45.924Z,99.90
2018-06-19T23:58:14.938Z,99.90
